sensor_id;sensor_type;location;lat;lon;timestamp;temperature;humidity
14140;DHT22;7150;53.514;9.988;2023-03-05T00:01:28;10.40;70.70
14140;DHT22;7150;53.514;9.988;2023-03-05T00:03:55;10.30;70.80
14140;DHT22;7150;53.514;9.988;2023-03-05T00:06:23;10.30;71.00
14140;DHT22;7150;53.514;9.988;2023-03-05T00:08:49;10.30;71.30
14140;DHT22;7150;53.514;9.988;2023-03-05T00:11:16;10.20;71.60
14140;DHT22;7150;53.514;9.988;2023-03-05T00:13:41;10.20;71.90
14140;DHT22;7150;53.514;9.988;2023-03-05T00:16:09;10.20;72.20
14140;DHT22;7150;53.514;9.988;2023-03-05T00:18:36;10.20;73.10
14140;DHT22;7150;53.514;9.988;2023-03-05T00:21:02;10.30;72.70
14140;DHT22;7150;53.514;9.988;2023-03-05T00:23:28;10.20;72.80
14140;DHT22;7150;53.514;9.988;2023-03-05T00:25:54;10.20;72.90
14140;DHT22;7150;53.514;9.988;2023-03-05T00:28:19;10.30;73.10
14140;DHT22;7150;53.514;9.988;2023-03-05T00:30:45;10.30;73.20
14140;DHT22;7150;53.514;9.988;2023-03-05T00:33:11;10.30;73.50
14140;DHT22;7150;53.514;9.988;2023-03-05T00:35:42;10.30;73.10
14140;DHT22;7150;53.514;9.988;2023-03-05T00:38:08;10.30;73.10
14140;DHT22;7150;53.514;9.988;2023-03-05T00:40:38;10.40;73.10
14140;DHT22;7150;53.514;9.988;2023-03-05T00:43:04;10.40;73.10
14140;DHT22;7150;53.514;9.988;2023-03-05T00:45:30;10.30;73.20
14140;DHT22;7150;53.514;9.988;2023-03-05T00:47:55;10.30;73.40
14140;DHT22;7150;53.514;9.988;2023-03-05T00:50:21;10.30;73.50
14140;DHT22;7150;53.514;9.988;2023-03-05T00:52:46;10.40;73.90
14140;DHT22;7150;53.514;9.988;2023-03-05T00:55:12;10.20;74.30
14140;DHT22;7150;53.514;9.988;2023-03-05T00:57:37;10.10;74.80
14140;DHT22;7150;53.514;9.988;2023-03-05T01:00:04;10.00;74.80
14140;DHT22;7150;53.514;9.988;2023-03-05T01:02:30;9.90;76.10
14140;DHT22;7150;53.514;9.988;2023-03-05T01:04:56;10.00;75.20
14140;DHT22;7150;53.514;9.988;2023-03-05T01:07:21;10.00;75.20
14140;DHT22;7150;53.514;9.988;2023-03-05T01:09:47;10.00;75.00
14140;DHT22;7150;53.514;9.988;2023-03-05T01:12:12;10.00;75.10
14140;DHT22;7150;53.514;9.988;2023-03-05T01:14:38;10.00;75.00
14140;DHT22;7150;53.514;9.988;2023-03-05T01:17:03;10.00;75.30
14140;DHT22;7150;53.514;9.988;2023-03-05T01:19:29;9.90;76.60
14140;DHT22;7150;53.514;9.988;2023-03-05T01:21:54;10.00;75.60
14140;DHT22;7150;53.514;9.988;2023-03-05T01:24:20;9.90;77.00
14140;DHT22;7150;53.514;9.988;2023-03-05T01:26:46;9.90;77.30
14140;DHT22;7150;53.514;9.988;2023-03-05T01:29:11;9.90;77.40
14140;DHT22;7150;53.514;9.988;2023-03-05T01:31:37;10.00;77.50
14140;DHT22;7150;53.514;9.988;2023-03-05T01:34:03;9.90;78.40
14140;DHT22;7150;53.514;9.988;2023-03-05T01:36:28;9.80;79.10
14140;DHT22;7150;53.514;9.988;2023-03-05T01:38:54;9.90;79.40
14140;DHT22;7150;53.514;9.988;2023-03-05T01:41:20;9.90;79.50
14140;DHT22;7150;53.514;9.988;2023-03-05T01:43:46;9.90;79.80
14140;DHT22;7150;53.514;9.988;2023-03-05T01:48:46;9.90;80.00
14140;DHT22;7150;53.514;9.988;2023-03-05T01:51:14;9.80;80.50
14140;DHT22;7150;53.514;9.988;2023-03-05T01:53:40;9.70;80.60
14140;DHT22;7150;53.514;9.988;2023-03-05T01:56:06;9.70;80.90
14140;DHT22;7150;53.514;9.988;2023-03-05T01:58:31;9.50;81.10
14140;DHT22;7150;53.514;9.988;2023-03-05T02:00:57;9.40;81.50
14140;DHT22;7150;53.514;9.988;2023-03-05T02:03:23;9.40;81.70
14140;DHT22;7150;53.514;9.988;2023-03-05T02:05:49;9.50;81.90
14140;DHT22;7150;53.514;9.988;2023-03-05T02:08:18;9.50;82.00
14140;DHT22;7150;53.514;9.988;2023-03-05T02:10:52;9.60;82.00
14140;DHT22;7150;53.514;9.988;2023-03-05T02:13:22;9.60;82.00
14140;DHT22;7150;53.514;9.988;2023-03-05T02:15:49;9.60;82.30
14140;DHT22;7150;53.514;9.988;2023-03-05T02:18:16;9.70;82.60
14140;DHT22;7150;53.514;9.988;2023-03-05T02:23:13;9.70;82.90
14140;DHT22;7150;53.514;9.988;2023-03-05T02:25:39;9.60;83.00
14140;DHT22;7150;53.514;9.988;2023-03-05T02:28:10;9.60;83.40
14140;DHT22;7150;53.514;9.988;2023-03-05T02:30:36;9.60;83.40
14140;DHT22;7150;53.514;9.988;2023-03-05T02:33:03;9.60;83.40
14140;DHT22;7150;53.514;9.988;2023-03-05T02:35:28;9.60;83.20
14140;DHT22;7150;53.514;9.988;2023-03-05T02:37:54;9.60;83.10
14140;DHT22;7150;53.514;9.988;2023-03-05T02:40:19;9.60;83.20
14140;DHT22;7150;53.514;9.988;2023-03-05T02:42:45;9.50;83.30
14140;DHT22;7150;53.514;9.988;2023-03-05T02:45:11;9.40;83.40
14140;DHT22;7150;53.514;9.988;2023-03-05T02:47:37;9.40;83.60
14140;DHT22;7150;53.514;9.988;2023-03-05T02:50:04;9.40;83.80
14140;DHT22;7150;53.514;9.988;2023-03-05T02:52:30;9.50;83.90
14140;DHT22;7150;53.514;9.988;2023-03-05T02:54:55;9.50;83.80
14140;DHT22;7150;53.514;9.988;2023-03-05T02:57:21;9.50;83.90
14140;DHT22;7150;53.514;9.988;2023-03-05T02:59:47;9.50;84.00
14140;DHT22;7150;53.514;9.988;2023-03-05T03:02:13;9.50;83.80
14140;DHT22;7150;53.514;9.988;2023-03-05T03:04:38;9.40;83.70
14140;DHT22;7150;53.514;9.988;2023-03-05T03:07:04;9.50;83.90
14140;DHT22;7150;53.514;9.988;2023-03-05T03:09:30;9.50;83.80
14140;DHT22;7150;53.514;9.988;2023-03-05T03:11:55;9.50;83.60
14140;DHT22;7150;53.514;9.988;2023-03-05T03:14:21;9.60;83.60
14140;DHT22;7150;53.514;9.988;2023-03-05T03:16:47;9.60;83.30
14140;DHT22;7150;53.514;9.988;2023-03-05T03:19:13;9.50;83.10
14140;DHT22;7150;53.514;9.988;2023-03-05T03:21:39;9.50;83.00
14140;DHT22;7150;53.514;9.988;2023-03-05T03:24:04;9.50;83.00
14140;DHT22;7150;53.514;9.988;2023-03-05T03:26:30;9.50;83.00
14140;DHT22;7150;53.514;9.988;2023-03-05T03:28:56;9.40;83.10
14140;DHT22;7150;53.514;9.988;2023-03-05T03:31:22;9.40;83.10
14140;DHT22;7150;53.514;9.988;2023-03-05T03:33:48;9.40;83.00
14140;DHT22;7150;53.514;9.988;2023-03-05T03:36:13;9.40;83.00
14140;DHT22;7150;53.514;9.988;2023-03-05T03:38:39;9.50;82.90
14140;DHT22;7150;53.514;9.988;2023-03-05T03:41:05;9.40;82.70
14140;DHT22;7150;53.514;9.988;2023-03-05T03:43:32;9.40;82.80
14140;DHT22;7150;53.514;9.988;2023-03-05T03:45:58;9.40;82.40
14140;DHT22;7150;53.514;9.988;2023-03-05T03:48:23;9.40;82.20
14140;DHT22;7150;53.514;9.988;2023-03-05T03:50:49;9.30;82.30
14140;DHT22;7150;53.514;9.988;2023-03-05T03:53:14;9.30;82.60
14140;DHT22;7150;53.514;9.988;2023-03-05T03:55:42;9.30;82.50
14140;DHT22;7150;53.514;9.988;2023-03-05T03:58:09;9.30;82.30
14140;DHT22;7150;53.514;9.988;2023-03-05T04:00:34;9.30;81.40
14140;DHT22;7150;53.514;9.988;2023-03-05T04:03:00;9.30;81.40
14140;DHT22;7150;53.514;9.988;2023-03-05T04:05:25;9.30;81.10
14140;DHT22;7150;53.514;9.988;2023-03-05T04:07:51;9.30;81.00
14140;DHT22;7150;53.514;9.988;2023-03-05T04:10:17;9.40;81.10
14140;DHT22;7150;53.514;9.988;2023-03-05T04:12:42;9.40;81.50
14140;DHT22;7150;53.514;9.988;2023-03-05T04:15:10;9.40;81.10
14140;DHT22;7150;53.514;9.988;2023-03-05T04:17:36;9.40;81.10
14140;DHT22;7150;53.514;9.988;2023-03-05T04:20:01;9.50;81.20
14140;DHT22;7150;53.514;9.988;2023-03-05T04:22:27;9.50;81.20
14140;DHT22;7150;53.514;9.988;2023-03-05T04:24:52;9.50;81.20
14140;DHT22;7150;53.514;9.988;2023-03-05T04:27:18;9.60;81.20
14140;DHT22;7150;53.514;9.988;2023-03-05T04:29:43;9.60;81.20
14140;DHT22;7150;53.514;9.988;2023-03-05T04:32:09;9.60;81.20
14140;DHT22;7150;53.514;9.988;2023-03-05T04:34:36;9.60;81.30
14140;DHT22;7150;53.514;9.988;2023-03-05T04:37:02;9.60;81.40
14140;DHT22;7150;53.514;9.988;2023-03-05T04:39:27;9.50;81.50
14140;DHT22;7150;53.514;9.988;2023-03-05T04:41:53;9.50;81.80
14140;DHT22;7150;53.514;9.988;2023-03-05T04:44:18;9.50;81.90
14140;DHT22;7150;53.514;9.988;2023-03-05T04:46:44;9.40;82.10
14140;DHT22;7150;53.514;9.988;2023-03-05T04:49:10;9.30;82.30
14140;DHT22;7150;53.514;9.988;2023-03-05T04:51:35;9.30;82.40
14140;DHT22;7150;53.514;9.988;2023-03-05T04:54:01;9.20;82.70
14140;DHT22;7150;53.514;9.988;2023-03-05T04:56:26;9.20;82.80
14140;DHT22;7150;53.514;9.988;2023-03-05T04:58:52;9.20;82.80
14140;DHT22;7150;53.514;9.988;2023-03-05T05:01:17;9.20;82.80
14140;DHT22;7150;53.514;9.988;2023-03-05T05:03:43;9.30;82.90
14140;DHT22;7150;53.514;9.988;2023-03-05T05:06:10;9.20;82.80
14140;DHT22;7150;53.514;9.988;2023-03-05T05:08:36;9.30;82.90
14140;DHT22;7150;53.514;9.988;2023-03-05T05:11:04;9.20;82.70
14140;DHT22;7150;53.514;9.988;2023-03-05T05:13:30;9.20;82.80
14140;DHT22;7150;53.514;9.988;2023-03-05T05:15:56;9.20;82.70
14140;DHT22;7150;53.514;9.988;2023-03-05T05:18:22;9.20;83.00
14140;DHT22;7150;53.514;9.988;2023-03-05T05:20:48;9.20;82.90
14140;DHT22;7150;53.514;9.988;2023-03-05T05:23:14;9.20;82.80
14140;DHT22;7150;53.514;9.988;2023-03-05T05:25:40;9.20;83.00
14140;DHT22;7150;53.514;9.988;2023-03-05T05:28:08;9.20;83.10
14140;DHT22;7150;53.514;9.988;2023-03-05T05:30:33;9.20;83.00
14140;DHT22;7150;53.514;9.988;2023-03-05T05:32:59;9.20;83.00
14140;DHT22;7150;53.514;9.988;2023-03-05T05:35:24;9.20;83.00
14140;DHT22;7150;53.514;9.988;2023-03-05T05:37:50;9.20;82.80
14140;DHT22;7150;53.514;9.988;2023-03-05T05:40:15;9.10;82.90
14140;DHT22;7150;53.514;9.988;2023-03-05T05:42:41;9.10;83.00
14140;DHT22;7150;53.514;9.988;2023-03-05T05:45:07;9.10;83.00
14140;DHT22;7150;53.514;9.988;2023-03-05T05:47:33;9.10;83.10
14140;DHT22;7150;53.514;9.988;2023-03-05T05:49:58;9.10;83.10
14140;DHT22;7150;53.514;9.988;2023-03-05T05:52:24;9.10;83.00
14140;DHT22;7150;53.514;9.988;2023-03-05T05:54:49;9.10;82.90
14140;DHT22;7150;53.514;9.988;2023-03-05T05:57:15;9.20;82.90
14140;DHT22;7150;53.514;9.988;2023-03-05T05:59:40;9.20;82.90
14140;DHT22;7150;53.514;9.988;2023-03-05T06:02:06;9.30;82.90
14140;DHT22;7150;53.514;9.988;2023-03-05T06:04:33;9.30;82.60
14140;DHT22;7150;53.514;9.988;2023-03-05T06:06:59;9.30;82.60
14140;DHT22;7150;53.514;9.988;2023-03-05T06:09:25;9.30;82.70
14140;DHT22;7150;53.514;9.988;2023-03-05T06:11:50;9.30;82.70
14140;DHT22;7150;53.514;9.988;2023-03-05T06:14:16;9.30;82.60
14140;DHT22;7150;53.514;9.988;2023-03-05T06:16:41;9.20;82.40
14140;DHT22;7150;53.514;9.988;2023-03-05T06:19:09;9.30;82.70
14140;DHT22;7150;53.514;9.988;2023-03-05T06:21:35;9.20;82.40
14140;DHT22;7150;53.514;9.988;2023-03-05T06:24:01;9.20;82.40
14140;DHT22;7150;53.514;9.988;2023-03-05T06:26:26;9.20;82.50
14140;DHT22;7150;53.514;9.988;2023-03-05T06:28:52;9.20;82.60
14140;DHT22;7150;53.514;9.988;2023-03-05T06:31:20;9.20;82.70
14140;DHT22;7150;53.514;9.988;2023-03-05T06:33:47;9.20;82.70
14140;DHT22;7150;53.514;9.988;2023-03-05T06:36:14;9.20;82.70
14140;DHT22;7150;53.514;9.988;2023-03-05T06:38:40;9.20;82.60
14140;DHT22;7150;53.514;9.988;2023-03-05T06:41:09;9.10;82.70
14140;DHT22;7150;53.514;9.988;2023-03-05T06:43:36;9.10;83.00
14140;DHT22;7150;53.514;9.988;2023-03-05T06:46:26;9.20;83.20
14140;DHT22;7150;53.514;9.988;2023-03-05T06:48:55;9.20;83.20
14140;DHT22;7150;53.514;9.988;2023-03-05T06:51:33;9.20;83.40
14140;DHT22;7150;53.514;9.988;2023-03-05T06:54:01;9.30;83.50
14140;DHT22;7150;53.514;9.988;2023-03-05T06:56:27;9.30;83.60
14140;DHT22;7150;53.514;9.988;2023-03-05T06:58:53;9.30;83.40
14140;DHT22;7150;53.514;9.988;2023-03-05T07:01:19;9.20;83.30
14140;DHT22;7150;53.514;9.988;2023-03-05T07:03:49;9.30;83.60
14140;DHT22;7150;53.514;9.988;2023-03-05T07:06:15;9.40;83.60
14140;DHT22;7150;53.514;9.988;2023-03-05T07:08:41;9.30;83.60
14140;DHT22;7150;53.514;9.988;2023-03-05T07:11:17;9.30;84.20
14140;DHT22;7150;53.514;9.988;2023-03-05T07:13:43;9.20;84.30
14140;DHT22;7150;53.514;9.988;2023-03-05T07:16:14;9.20;84.70
14140;DHT22;7150;53.514;9.988;2023-03-05T07:18:40;9.30;85.00
14140;DHT22;7150;53.514;9.988;2023-03-05T07:21:07;9.30;85.20
14140;DHT22;7150;53.514;9.988;2023-03-05T07:23:34;9.30;85.40
14140;DHT22;7150;53.514;9.988;2023-03-05T07:26:04;9.40;85.50
14140;DHT22;7150;53.514;9.988;2023-03-05T07:28:30;9.50;85.60
14140;DHT22;7150;53.514;9.988;2023-03-05T07:30:58;9.40;85.40
14140;DHT22;7150;53.514;9.988;2023-03-05T07:33:24;9.40;85.00
14140;DHT22;7150;53.514;9.988;2023-03-05T07:35:50;9.50;85.20
14140;DHT22;7150;53.514;9.988;2023-03-05T07:38:15;9.50;85.40
14140;DHT22;7150;53.514;9.988;2023-03-05T07:40:41;9.60;85.30
14140;DHT22;7150;53.514;9.988;2023-03-05T07:43:06;9.60;85.00
14140;DHT22;7150;53.514;9.988;2023-03-05T07:45:33;9.50;85.10
14140;DHT22;7150;53.514;9.988;2023-03-05T07:47:58;9.50;85.00
14140;DHT22;7150;53.514;9.988;2023-03-05T07:50:23;9.50;84.80
14140;DHT22;7150;53.514;9.988;2023-03-05T07:52:49;9.50;84.50
14140;DHT22;7150;53.514;9.988;2023-03-05T07:55:15;9.60;84.50
14140;DHT22;7150;53.514;9.988;2023-03-05T07:57:40;9.50;84.50
14140;DHT22;7150;53.514;9.988;2023-03-05T08:00:07;9.50;84.40
14140;DHT22;7150;53.514;9.988;2023-03-05T08:02:33;9.40;84.30
14140;DHT22;7150;53.514;9.988;2023-03-05T08:04:58;9.40;84.40
14140;DHT22;7150;53.514;9.988;2023-03-05T08:07:24;9.40;84.60
14140;DHT22;7150;53.514;9.988;2023-03-05T08:09:49;9.50;84.70
14140;DHT22;7150;53.514;9.988;2023-03-05T08:12:15;9.60;84.70
14140;DHT22;7150;53.514;9.988;2023-03-05T08:14:40;9.70;84.50
14140;DHT22;7150;53.514;9.988;2023-03-05T08:17:06;9.70;84.30
14140;DHT22;7150;53.514;9.988;2023-03-05T08:19:32;9.70;83.70
14140;DHT22;7150;53.514;9.988;2023-03-05T08:21:58;9.70;82.90
14140;DHT22;7150;53.514;9.988;2023-03-05T08:24:24;9.60;82.60
14140;DHT22;7150;53.514;9.988;2023-03-05T08:26:54;9.60;82.50
14140;DHT22;7150;53.514;9.988;2023-03-05T08:29:19;9.60;82.50
14140;DHT22;7150;53.514;9.988;2023-03-05T08:31:46;9.60;82.00
14140;DHT22;7150;53.514;9.988;2023-03-05T08:34:11;9.70;82.40
14140;DHT22;7150;53.514;9.988;2023-03-05T08:36:37;9.70;82.60
14140;DHT22;7150;53.514;9.988;2023-03-05T08:39:03;9.80;82.80
14140;DHT22;7150;53.514;9.988;2023-03-05T08:41:31;9.90;82.90
14140;DHT22;7150;53.514;9.988;2023-03-05T08:43:56;9.90;82.90
14140;DHT22;7150;53.514;9.988;2023-03-05T08:46:22;9.80;82.90
14140;DHT22;7150;53.514;9.988;2023-03-05T08:48:48;9.90;83.10
14140;DHT22;7150;53.514;9.988;2023-03-05T08:51:20;9.90;83.00
14140;DHT22;7150;53.514;9.988;2023-03-05T08:53:46;9.90;82.70
14140;DHT22;7150;53.514;9.988;2023-03-05T08:56:13;9.90;82.10
14140;DHT22;7150;53.514;9.988;2023-03-05T08:58:39;9.90;81.90
14140;DHT22;7150;53.514;9.988;2023-03-05T09:01:05;10.00;81.20
14140;DHT22;7150;53.514;9.988;2023-03-05T09:03:31;10.10;80.80
14140;DHT22;7150;53.514;9.988;2023-03-05T09:06:01;9.90;81.10
14140;DHT22;7150;53.514;9.988;2023-03-05T09:08:27;9.90;80.90
14140;DHT22;7150;53.514;9.988;2023-03-05T09:10:53;9.90;81.00
14140;DHT22;7150;53.514;9.988;2023-03-05T09:13:19;9.90;80.90
14140;DHT22;7150;53.514;9.988;2023-03-05T09:15:44;10.00;79.20
14140;DHT22;7150;53.514;9.988;2023-03-05T09:18:10;10.00;78.70
14140;DHT22;7150;53.514;9.988;2023-03-05T09:20:36;10.00;78.60
14140;DHT22;7150;53.514;9.988;2023-03-05T09:23:02;10.10;78.60
14140;DHT22;7150;53.514;9.988;2023-03-05T09:25:27;10.10;78.10
14140;DHT22;7150;53.514;9.988;2023-03-05T09:27:53;10.20;78.20
14140;DHT22;7150;53.514;9.988;2023-03-05T09:30:19;10.30;78.00
14140;DHT22;7150;53.514;9.988;2023-03-05T09:32:44;10.30;77.30
14140;DHT22;7150;53.514;9.988;2023-03-05T09:35:10;10.30;76.10
14140;DHT22;7150;53.514;9.988;2023-03-05T09:37:36;10.20;76.70
14140;DHT22;7150;53.514;9.988;2023-03-05T09:40:01;10.10;75.60
14140;DHT22;7150;53.514;9.988;2023-03-05T09:45:11;10.20;75.20
14140;DHT22;7150;53.514;9.988;2023-03-05T09:48:01;10.20;75.30
14140;DHT22;7150;53.514;9.988;2023-03-05T09:55:54;10.40;73.80
14140;DHT22;7150;53.514;9.988;2023-03-05T10:03:56;10.40;71.10
14140;DHT22;7150;53.514;9.988;2023-03-05T10:06:25;10.40;72.10
14140;DHT22;7150;53.514;9.988;2023-03-05T10:16:59;10.20;76.50
14140;DHT22;7150;53.514;9.988;2023-03-05T10:22:13;10.30;78.10
14140;DHT22;7150;53.514;9.988;2023-03-05T10:33:29;9.90;79.90
14140;DHT22;7150;53.514;9.988;2023-03-05T10:38:56;9.50;81.50
14140;DHT22;7150;53.514;9.988;2023-03-05T10:44:02;9.20;82.70
14140;DHT22;7150;53.514;9.988;2023-03-05T10:46:35;9.20;83.00
14140;DHT22;7150;53.514;9.988;2023-03-05T10:51:53;9.10;83.80
14140;DHT22;7150;53.514;9.988;2023-03-05T10:54:28;9.20;84.40
14140;DHT22;7150;53.514;9.988;2023-03-05T10:57:26;9.30;84.80
14140;DHT22;7150;53.514;9.988;2023-03-05T10:59:57;9.40;84.90
14140;DHT22;7150;53.514;9.988;2023-03-05T11:02:25;9.40;85.10
14140;DHT22;7150;53.514;9.988;2023-03-05T11:04:52;9.50;85.20
14140;DHT22;7150;53.514;9.988;2023-03-05T11:12:37;9.80;84.60
14140;DHT22;7150;53.514;9.988;2023-03-05T11:17:44;9.90;83.50
14140;DHT22;7150;53.514;9.988;2023-03-05T11:26:02;10.30;80.20
14140;DHT22;7150;53.514;9.988;2023-03-05T11:28:35;10.40;79.30
14140;DHT22;7150;53.514;9.988;2023-03-05T11:34:04;10.40;77.80
14140;DHT22;7150;53.514;9.988;2023-03-05T11:36:34;10.30;76.40
14140;DHT22;7150;53.514;9.988;2023-03-05T11:41:42;10.40;76.20
14140;DHT22;7150;53.514;9.988;2023-03-05T11:44:20;10.30;73.50
14140;DHT22;7150;53.514;9.988;2023-03-05T11:49:28;10.30;72.30
14140;DHT22;7150;53.514;9.988;2023-03-05T11:54:29;10.40;69.30
14140;DHT22;7150;53.514;9.988;2023-03-05T11:56:59;10.40;69.20
14140;DHT22;7150;53.514;9.988;2023-03-05T11:59:30;10.50;69.10
14140;DHT22;7150;53.514;9.988;2023-03-05T12:01:57;10.50;69.00
14140;DHT22;7150;53.514;9.988;2023-03-05T12:04:23;10.60;69.30
14140;DHT22;7150;53.514;9.988;2023-03-05T12:09:45;10.70;67.20
14140;DHT22;7150;53.514;9.988;2023-03-05T12:12:42;10.80;67.90
14140;DHT22;7150;53.514;9.988;2023-03-05T12:18:25;10.70;66.70
14140;DHT22;7150;53.514;9.988;2023-03-05T12:23:46;10.80;68.70
14140;DHT22;7150;53.514;9.988;2023-03-05T12:26:12;10.80;68.90
14140;DHT22;7150;53.514;9.988;2023-03-05T12:31:25;11.00;67.80
14140;DHT22;7150;53.514;9.988;2023-03-05T12:33:51;11.00;67.10
14140;DHT22;7150;53.514;9.988;2023-03-05T12:38:53;11.20;66.90
14140;DHT22;7150;53.514;9.988;2023-03-05T12:46:41;11.10;65.30
14140;DHT22;7150;53.514;9.988;2023-03-05T12:51:43;11.00;64.70
14140;DHT22;7150;53.514;9.988;2023-03-05T12:56:55;11.00;65.80
14140;DHT22;7150;53.514;9.988;2023-03-05T12:59:23;11.00;66.00
14140;DHT22;7150;53.514;9.988;2023-03-05T13:01:57;11.00;64.90
14140;DHT22;7150;53.514;9.988;2023-03-05T13:04:28;11.10;65.30
14140;DHT22;7150;53.514;9.988;2023-03-05T13:07:00;11.10;65.50
14140;DHT22;7150;53.514;9.988;2023-03-05T13:09:28;11.20;65.40
14140;DHT22;7150;53.514;9.988;2023-03-05T13:11:56;11.30;63.30
14140;DHT22;7150;53.514;9.988;2023-03-05T13:14:44;11.20;63.80
14140;DHT22;7150;53.514;9.988;2023-03-05T13:17:40;11.30;65.60
14140;DHT22;7150;53.514;9.988;2023-03-05T13:20:28;11.50;66.00
14140;DHT22;7150;53.514;9.988;2023-03-05T13:23:21;11.50;66.00
14140;DHT22;7150;53.514;9.988;2023-03-05T13:28:24;11.30;66.00
14140;DHT22;7150;53.514;9.988;2023-03-05T13:33:26;11.30;66.90
14140;DHT22;7150;53.514;9.988;2023-03-05T13:35:52;11.30;67.00
14140;DHT22;7150;53.514;9.988;2023-03-05T13:38:39;11.20;67.20
14140;DHT22;7150;53.514;9.988;2023-03-05T13:43:48;11.20;68.00
14140;DHT22;7150;53.514;9.988;2023-03-05T13:46:22;11.40;67.90
14140;DHT22;7150;53.514;9.988;2023-03-05T13:48:48;11.50;67.20
14140;DHT22;7150;53.514;9.988;2023-03-05T13:51:13;11.60;67.80
14140;DHT22;7150;53.514;9.988;2023-03-05T13:53:39;11.60;67.80
14140;DHT22;7150;53.514;9.988;2023-03-05T13:56:07;11.60;67.60
14140;DHT22;7150;53.514;9.988;2023-03-05T13:58:48;11.60;67.10
14140;DHT22;7150;53.514;9.988;2023-03-05T14:03:39;11.50;67.40
14140;DHT22;7150;53.514;9.988;2023-03-05T14:06:20;11.50;67.80
14140;DHT22;7150;53.514;9.988;2023-03-05T14:08:51;11.50;66.70
14140;DHT22;7150;53.514;9.988;2023-03-05T14:11:17;11.50;66.60
14140;DHT22;7150;53.514;9.988;2023-03-05T14:13:44;11.40;67.10
14140;DHT22;7150;53.514;9.988;2023-03-05T14:16:13;11.40;67.20
14140;DHT22;7150;53.514;9.988;2023-03-05T14:18:52;11.30;67.60
14140;DHT22;7150;53.514;9.988;2023-03-05T14:21:18;11.30;67.90
14140;DHT22;7150;53.514;9.988;2023-03-05T14:23:46;11.30;68.30
14140;DHT22;7150;53.514;9.988;2023-03-05T14:28:52;11.30;68.40
14140;DHT22;7150;53.514;9.988;2023-03-05T14:31:19;11.30;68.20
14140;DHT22;7150;53.514;9.988;2023-03-05T14:33:45;11.20;69.00
14140;DHT22;7150;53.514;9.988;2023-03-05T14:36:11;11.20;69.10
14140;DHT22;7150;53.514;9.988;2023-03-05T14:38:41;11.40;69.20
14140;DHT22;7150;53.514;9.988;2023-03-05T14:43:45;11.20;69.40
14140;DHT22;7150;53.514;9.988;2023-03-05T14:46:10;11.30;70.10
14140;DHT22;7150;53.514;9.988;2023-03-05T14:48:36;11.30;70.70
14140;DHT22;7150;53.514;9.988;2023-03-05T14:51:02;11.20;71.20
14140;DHT22;7150;53.514;9.988;2023-03-05T14:53:32;11.20;71.20
14140;DHT22;7150;53.514;9.988;2023-03-05T14:55:59;11.30;71.40
14140;DHT22;7150;53.514;9.988;2023-03-05T14:58:28;11.30;72.30
14140;DHT22;7150;53.514;9.988;2023-03-05T15:00:57;11.40;72.40
14140;DHT22;7150;53.514;9.988;2023-03-05T15:03:23;11.50;72.50
14140;DHT22;7150;53.514;9.988;2023-03-05T15:05:51;11.40;72.10
14140;DHT22;7150;53.514;9.988;2023-03-05T15:08:24;11.30;72.10
14140;DHT22;7150;53.514;9.988;2023-03-05T15:10:50;11.30;72.00
14140;DHT22;7150;53.514;9.988;2023-03-05T15:13:16;11.30;72.20
14140;DHT22;7150;53.514;9.988;2023-03-05T15:15:42;11.20;72.50
14140;DHT22;7150;53.514;9.988;2023-03-05T15:18:13;11.20;72.40
14140;DHT22;7150;53.514;9.988;2023-03-05T15:20:39;11.20;72.00
14140;DHT22;7150;53.514;9.988;2023-03-05T15:23:05;11.10;71.90
14140;DHT22;7150;53.514;9.988;2023-03-05T15:25:31;11.10;72.60
14140;DHT22;7150;53.514;9.988;2023-03-05T15:27:56;11.20;72.80
14140;DHT22;7150;53.514;9.988;2023-03-05T15:30:25;11.20;72.30
14140;DHT22;7150;53.514;9.988;2023-03-05T15:32:52;11.10;73.00
14140;DHT22;7150;53.514;9.988;2023-03-05T15:35:19;11.00;72.00
14140;DHT22;7150;53.514;9.988;2023-03-05T15:37:44;11.10;72.00
14140;DHT22;7150;53.514;9.988;2023-03-05T15:40:10;10.90;71.40
14140;DHT22;7150;53.514;9.988;2023-03-05T15:42:36;11.00;72.20
14140;DHT22;7150;53.514;9.988;2023-03-05T15:45:02;10.90;72.80
14140;DHT22;7150;53.514;9.988;2023-03-05T15:47:28;10.90;72.40
14140;DHT22;7150;53.514;9.988;2023-03-05T15:49:53;10.90;72.60
14140;DHT22;7150;53.514;9.988;2023-03-05T15:52:18;10.90;73.10
14140;DHT22;7150;53.514;9.988;2023-03-05T15:54:44;10.80;72.80
14140;DHT22;7150;53.514;9.988;2023-03-05T15:57:11;10.90;72.40
14140;DHT22;7150;53.514;9.988;2023-03-05T15:59:36;10.80;72.50
14140;DHT22;7150;53.514;9.988;2023-03-05T16:02:02;10.80;73.00
14140;DHT22;7150;53.514;9.988;2023-03-05T16:04:28;10.90;73.30
14140;DHT22;7150;53.514;9.988;2023-03-05T16:06:54;10.90;73.30
14140;DHT22;7150;53.514;9.988;2023-03-05T16:09:23;10.80;73.60
14140;DHT22;7150;53.514;9.988;2023-03-05T16:11:50;10.80;73.70
14140;DHT22;7150;53.514;9.988;2023-03-05T16:14:19;10.80;73.70
14140;DHT22;7150;53.514;9.988;2023-03-05T16:16:46;10.70;73.70
14140;DHT22;7150;53.514;9.988;2023-03-05T16:19:13;10.80;73.60
14140;DHT22;7150;53.514;9.988;2023-03-05T16:21:39;10.70;73.60
14140;DHT22;7150;53.514;9.988;2023-03-05T16:24:05;10.70;73.90
14140;DHT22;7150;53.514;9.988;2023-03-05T16:26:34;10.70;73.90
14140;DHT22;7150;53.514;9.988;2023-03-05T16:29:00;10.70;73.60
14140;DHT22;7150;53.514;9.988;2023-03-05T16:31:30;10.70;73.40
14140;DHT22;7150;53.514;9.988;2023-03-05T16:33:56;10.70;73.60
14140;DHT22;7150;53.514;9.988;2023-03-05T16:36:24;10.60;74.20
14140;DHT22;7150;53.514;9.988;2023-03-05T16:38:51;10.60;74.30
14140;DHT22;7150;53.514;9.988;2023-03-05T16:41:18;10.60;74.20
14140;DHT22;7150;53.514;9.988;2023-03-05T16:43:45;10.50;74.10
14140;DHT22;7150;53.514;9.988;2023-03-05T16:46:11;10.50;74.80
14140;DHT22;7150;53.514;9.988;2023-03-05T16:48:37;10.40;75.00
14140;DHT22;7150;53.514;9.988;2023-03-05T16:51:04;10.40;75.60
14140;DHT22;7150;53.514;9.988;2023-03-05T16:53:30;10.40;76.00
14140;DHT22;7150;53.514;9.988;2023-03-05T16:55:56;10.40;76.10
14140;DHT22;7150;53.514;9.988;2023-03-05T16:58:21;10.30;76.50
14140;DHT22;7150;53.514;9.988;2023-03-05T17:00:47;10.30;76.70
14140;DHT22;7150;53.514;9.988;2023-03-05T17:03:13;10.30;77.10
14140;DHT22;7150;53.514;9.988;2023-03-05T17:05:38;10.30;77.30
14140;DHT22;7150;53.514;9.988;2023-03-05T17:08:04;10.30;77.70
14140;DHT22;7150;53.514;9.988;2023-03-05T17:10:30;10.20;78.20
14140;DHT22;7150;53.514;9.988;2023-03-05T17:12:56;10.20;78.30
14140;DHT22;7150;53.514;9.988;2023-03-05T17:15:22;10.20;78.70
14140;DHT22;7150;53.514;9.988;2023-03-05T17:17:48;10.20;78.80
14140;DHT22;7150;53.514;9.988;2023-03-05T17:20:14;10.20;78.90
14140;DHT22;7150;53.514;9.988;2023-03-05T17:22:40;10.30;79.10
14140;DHT22;7150;53.514;9.988;2023-03-05T17:25:06;10.20;79.30
14140;DHT22;7150;53.514;9.988;2023-03-05T17:27:32;10.20;79.70
14140;DHT22;7150;53.514;9.988;2023-03-05T17:29:58;10.20;79.60
14140;DHT22;7150;53.514;9.988;2023-03-05T17:32:23;10.20;79.70
14140;DHT22;7150;53.514;9.988;2023-03-05T17:34:52;10.20;79.90
14140;DHT22;7150;53.514;9.988;2023-03-05T17:37:19;10.20;80.20
14140;DHT22;7150;53.514;9.988;2023-03-05T17:39:45;10.10;80.60
14140;DHT22;7150;53.514;9.988;2023-03-05T17:42:11;10.10;81.00
14140;DHT22;7150;53.514;9.988;2023-03-05T17:44:37;10.00;81.30
14140;DHT22;7150;53.514;9.988;2023-03-05T17:47:02;10.00;81.60